createdAt,value
2018-03-04T00:01:06.237Z,72.97
2018-03-04T00:03:35.446Z,80.13
2018-03-04T00:06:04.501Z,74.23
2018-03-04T00:08:33.698Z,69.40
2018-03-04T00:11:02.779Z,76.83
2018-03-04T00:13:31.834Z,70.77
2018-03-04T00:16:00.895Z,71.57
2018-03-04T00:18:30.843Z,75.53
2018-03-04T00:20:59.912Z,73.00
2018-03-04T00:23:29.089Z,69.87
2018-03-04T00:25:58.159Z,78.37
2018-03-04T00:28:27.211Z,72.13
2018-03-04T00:30:56.296Z,87.97
2018-03-04T00:33:25.383Z,72.30
2018-03-04T00:35:54.445Z,65.97
2018-03-04T00:38:23.499Z,73.83
2018-03-04T00:40:52.586Z,71.23
2018-03-04T00:43:21.640Z,73.70
2018-03-04T00:45:50.763Z,72.10
2018-03-04T00:48:19.855Z,72.17
2018-03-04T00:50:49.741Z,68.37
2018-03-04T00:53:18.799Z,70.40
2018-03-04T00:55:47.892Z,65.47
2018-03-04T00:58:16.939Z,70.17
2018-03-04T01:00:46.804Z,71.80
2018-03-04T01:03:15.851Z,74.53
2018-03-04T01:05:44.933Z,76.57
2018-03-04T01:08:14.763Z,76.33
2018-03-04T01:10:43.874Z,69.70
2018-03-04T01:13:12.916Z,60.03
2018-03-04T01:15:42.000Z,68.37
2018-03-04T01:18:11.100Z,73.50
2018-03-04T01:20:40.166Z,72.27
2018-03-04T01:23:09.218Z,63.73
2018-03-04T01:25:39.072Z,69.50
2018-03-04T01:28:08.117Z,68.17
2018-03-04T01:30:37.217Z,73.80
2018-03-04T01:33:06.283Z,68.90
2018-03-04T01:35:35.395Z,68.27
2018-03-04T01:38:04.458Z,74.30
2018-03-04T01:40:34.309Z,69.20
2018-03-04T01:43:03.371Z,63.03
2018-03-04T01:45:32.465Z,64.03
2018-03-04T01:48:01.578Z,64.20
2018-03-04T01:50:31.410Z,63.00
2018-03-04T01:53:01.230Z,66.20
2018-03-04T01:55:31.095Z,67.80
2018-03-04T01:58:00.157Z,72.27
2018-03-04T02:00:29.431Z,56.97
2018-03-04T02:02:59.282Z,71.17
2018-03-04T02:05:28.344Z,66.43
2018-03-04T02:07:58.215Z,68.10
2018-03-04T02:10:27.272Z,65.20
2018-03-04T02:12:56.340Z,63.73
2018-03-04T02:15:25.430Z,64.87
2018-03-04T02:17:54.495Z,70.27
2018-03-04T02:20:23.577Z,70.80
2018-03-04T02:22:52.698Z,69.73
2018-03-04T02:25:21.804Z,58.70
2018-03-04T02:27:50.837Z,55.27
2018-03-04T02:30:19.917Z,67.23
2018-03-04T02:32:49.774Z,62.00
2018-03-04T02:35:18.844Z,66.60
2018-03-04T02:37:47.904Z,71.40
2018-03-04T02:40:17.748Z,64.70
2018-03-04T02:42:46.884Z,65.33
2018-03-04T02:45:15.970Z,65.20
2018-03-04T02:47:45.044Z,67.37
2018-03-04T02:50:14.129Z,63.10
2018-03-04T02:52:43.200Z,60.57
2018-03-04T02:55:13.060Z,59.13
2018-03-04T02:57:42.115Z,68.37
2018-03-04T03:00:11.218Z,69.67
2018-03-04T03:02:40.298Z,54.80
2018-03-04T03:05:10.138Z,72.47
2018-03-04T03:07:39.223Z,61.37
2018-03-04T03:10:08.321Z,58.73
2018-03-04T03:12:37.419Z,64.10
2018-03-04T03:15:06.494Z,61.13
2018-03-04T03:17:36.323Z,59.30
2018-03-04T03:20:05.397Z,61.20
2018-03-04T03:22:35.219Z,63.93
2018-03-04T03:25:04.351Z,57.23
2018-03-04T03:27:33.393Z,61.43
2018-03-04T03:30:03.242Z,64.03
2018-03-04T03:32:32.327Z,60.27
2018-03-04T03:35:01.433Z,57.33
2018-03-04T03:37:30.469Z,68.13
2018-03-04T03:39:59.558Z,60.60
2018-03-04T03:42:28.612Z,59.03
2018-03-04T03:44:57.724Z,60.40
2018-03-04T03:47:27.854Z,64.40
2018-03-04T03:49:56.943Z,53.40
2018-03-04T03:52:26.017Z,68.67
2018-03-04T03:54:55.065Z,67.30
2018-03-04T03:57:24.162Z,57.80
2018-03-04T03:59:53.238Z,60.60
2018-03-04T04:02:22.313Z,63.10
2018-03-04T04:04:51.392Z,64.10
2018-03-04T04:07:20.453Z,60.67
2018-03-04T04:09:50.308Z,60.90
2018-03-04T04:12:19.375Z,63.20
2018-03-04T04:14:48.488Z,56.63
2018-03-04T04:17:17.524Z,53.60
2018-03-04T04:19:46.617Z,54.43
2018-03-04T04:22:15.755Z,58.60
2018-03-04T04:24:44.848Z,59.97
2018-03-04T04:27:13.907Z,64.80
2018-03-04T04:29:43.007Z,59.03
2018-03-04T04:32:12.097Z,61.70
2018-03-04T04:34:41.192Z,59.87
2018-03-04T04:37:10.278Z,59.80
2018-03-04T04:39:39.368Z,59.80
2018-03-04T04:42:08.425Z,47.70
2018-03-04T04:44:37.504Z,51.57
2018-03-04T04:47:06.566Z,54.07
2018-03-04T04:49:35.653Z,52.27
2018-03-04T04:52:04.715Z,64.37
2018-03-04T04:54:33.810Z,58.60
2018-03-04T04:57:02.867Z,53.60
2018-03-04T04:59:32.719Z,45.03
2018-03-04T05:02:01.788Z,56.27
2018-03-04T05:04:30.843Z,62.07
2018-03-04T05:06:59.928Z,53.60
2018-03-04T05:09:28.987Z,55.00
2018-03-04T05:11:58.070Z,60.50
2018-03-04T05:14:27.162Z,58.33
2018-03-04T05:16:57.021Z,59.50
2018-03-04T05:19:26.081Z,52.90
2018-03-04T05:21:55.147Z,59.13
2018-03-04T05:24:25.004Z,57.70
2018-03-04T05:26:54.078Z,55.00
2018-03-04T05:29:23.139Z,54.40
2018-03-04T05:31:52.226Z,59.30
2018-03-04T05:34:21.300Z,52.63
2018-03-04T05:36:50.411Z,50.33
2018-03-04T05:39:19.462Z,65.90
2018-03-04T05:41:48.570Z,63.80
2018-03-04T05:44:17.657Z,56.67
2018-03-04T05:46:46.750Z,59.90
2018-03-04T05:49:15.869Z,56.13
2018-03-04T05:51:45.682Z,53.47
2018-03-04T05:54:14.738Z,58.10
2018-03-04T05:56:43.846Z,59.53
2018-03-04T05:59:12.894Z,53.40
2018-03-04T06:01:42.765Z,81.57
2018-03-04T06:04:11.836Z,61.73
2018-03-04T06:06:40.934Z,83.30
2018-03-04T06:09:09.998Z,50.53
2018-03-04T06:11:39.834Z,53.27
2018-03-04T06:14:08.917Z,50.33
2018-03-04T06:16:38.762Z,48.30
2018-03-04T06:19:08.132Z,55.70
2018-03-04T06:21:38.037Z,59.73
2018-03-04T06:24:07.879Z,56.27
2018-03-04T06:26:36.969Z,59.80
2018-03-04T06:29:06.959Z,55.87
2018-03-04T06:31:36.832Z,58.23
2018-03-04T06:34:05.892Z,56.27
2018-03-04T06:36:34.953Z,70.00
2018-03-04T06:39:04.797Z,60.23
2018-03-04T06:41:33.864Z,56.67
2018-03-04T06:44:03.714Z,65.50
2018-03-04T06:46:32.764Z,67.80
2018-03-04T06:49:02.631Z,62.53
2018-03-04T06:51:31.712Z,59.27
2018-03-04T06:54:01.557Z,56.00
2018-03-04T06:56:30.653Z,56.13
2018-03-04T06:58:59.707Z,69.23
2018-03-04T07:01:28.801Z,65.50
2018-03-04T07:03:57.870Z,64.20
2018-03-04T07:06:27.729Z,56.00
2018-03-04T07:08:56.792Z,59.20
2018-03-04T07:11:26.651Z,62.73
2018-03-04T07:13:55.713Z,60.73
2018-03-04T07:16:24.892Z,63.47
2018-03-04T07:18:54.721Z,60.70
2018-03-04T07:21:24.951Z,59.67
2018-03-04T07:23:53.996Z,57.03
2018-03-04T07:26:23.102Z,62.87
2018-03-04T07:28:52.167Z,62.23
2018-03-04T07:31:21.251Z,62.27
2018-03-04T07:33:50.312Z,85.87
2018-03-04T07:36:19.403Z,64.23
2018-03-04T07:38:48.468Z,67.27
2018-03-04T07:41:17.547Z,66.20
2018-03-04T07:43:46.619Z,62.10
2018-03-04T07:46:15.700Z,53.10
2018-03-04T07:48:44.768Z,61.77
2018-03-04T07:51:13.867Z,63.33
2018-03-04T07:53:42.977Z,61.77
2018-03-04T07:56:12.039Z,57.47
2018-03-04T07:58:42.032Z,69.03
2018-03-04T08:01:11.255Z,125.43
2018-03-04T08:03:41.079Z,78.70
2018-03-04T08:06:10.178Z,65.70
2018-03-04T08:08:39.260Z,67.80
2018-03-04T08:11:08.348Z,59.87
2018-03-04T08:13:38.184Z,67.00
2018-03-04T08:16:07.255Z,71.27
2018-03-04T08:18:37.083Z,66.77
2018-03-04T08:21:06.226Z,64.27
2018-03-04T08:23:35.297Z,76.90
2018-03-04T08:26:22.267Z,84.03
2018-03-04T08:28:51.325Z,68.93
2018-03-04T08:31:20.407Z,72.67
2018-03-04T08:33:49.489Z,75.97
2018-03-04T08:36:18.634Z,87.47
2018-03-04T08:38:47.713Z,81.27
2018-03-04T08:41:16.797Z,75.90
2018-03-04T08:43:45.893Z,81.73
2018-03-04T08:46:14.954Z,74.10
2018-03-04T08:48:44.023Z,68.77
2018-03-04T08:51:13.116Z,78.47
2018-03-04T08:53:42.166Z,75.43
2018-03-04T08:56:11.214Z,69.60
2018-03-04T08:58:41.070Z,76.07
2018-03-04T09:01:12.020Z,66.67
2018-03-04T09:03:41.103Z,69.70
2018-03-04T09:06:10.211Z,78.27
2018-03-04T09:08:39.336Z,81.87
2018-03-04T09:11:08.523Z,86.23
2018-03-04T09:13:37.720Z,76.37
2018-03-04T09:16:07.523Z,75.53
2018-03-04T09:18:36.632Z,71.80
2018-03-04T09:21:05.687Z,75.80
2018-03-04T09:23:34.767Z,72.40
2018-03-04T09:26:03.828Z,76.50
2018-03-04T09:28:32.915Z,78.60
2018-03-04T09:31:01.995Z,88.30
2018-03-04T09:33:31.067Z,102.40
2018-03-04T09:36:00.143Z,76.53
2018-03-04T09:38:29.225Z,83.00
2018-03-04T09:40:59.047Z,73.03
2018-03-04T09:43:28.105Z,77.67
2018-03-04T09:45:57.184Z,76.40
2018-03-04T09:48:26.274Z,74.73
2018-03-04T09:50:55.343Z,69.87
2018-03-04T09:53:24.415Z,71.40
2018-03-04T09:55:54.286Z,76.17
2018-03-04T09:58:23.345Z,67.82
2018-03-04T10:00:52.389Z,74.60
2018-03-04T10:03:21.472Z,81.00
2018-03-04T10:05:50.746Z,69.77
2018-03-04T10:08:19.812Z,67.13
2018-03-04T10:10:49.658Z,77.20
2018-03-04T10:13:18.708Z,72.10
2018-03-04T10:15:48.551Z,72.30
2018-03-04T10:18:17.604Z,76.70
2018-03-04T10:20:47.449Z,71.33
2018-03-04T10:23:16.506Z,68.47
2018-03-04T10:25:46.517Z,83.53
2018-03-04T10:28:15.579Z,72.60
2018-03-04T10:30:44.615Z,83.30
2018-03-04T10:33:14.463Z,75.37
2018-03-04T10:35:43.531Z,73.13
2018-03-04T10:38:13.342Z,64.97
2018-03-04T10:40:43.174Z,74.77
2018-03-04T10:43:12.270Z,71.30
2018-03-04T10:45:41.430Z,84.03
2018-03-04T10:48:10.492Z,81.40
2018-03-04T10:50:39.538Z,72.97
2018-03-04T10:53:08.620Z,86.60
2018-03-04T10:55:38.456Z,77.13
2018-03-04T10:58:08.404Z,74.07
2018-03-04T11:00:42.922Z,74.43
2018-03-04T11:03:13.193Z,75.03
2018-03-04T11:05:42.303Z,74.83
2018-03-04T11:08:11.404Z,74.37
2018-03-04T11:10:40.474Z,80.47
2018-03-04T11:13:10.295Z,121.47
2018-03-04T11:15:40.139Z,77.30
2018-03-04T11:18:09.232Z,82.17
2018-03-04T11:20:38.311Z,82.03
2018-03-04T11:23:07.391Z,80.93
2018-03-04T11:25:36.483Z,79.83
2018-03-04T11:28:06.298Z,76.30
2018-03-04T11:30:36.131Z,79.63
2018-03-04T11:33:05.226Z,89.07
2018-03-04T11:35:34.296Z,78.70
2018-03-04T11:38:04.154Z,82.53
2018-03-04T11:40:33.249Z,87.13
2018-03-04T11:43:02.313Z,80.47
2018-03-04T11:45:32.150Z,74.37
2018-03-04T11:48:01.221Z,84.77
2018-03-04T11:50:30.286Z,79.57
2018-03-04T11:52:59.396Z,80.57
2018-03-04T11:55:29.288Z,80.40
2018-03-04T11:57:58.320Z,77.87
2018-03-04T12:00:28.127Z,78.07
2018-03-04T12:02:57.988Z,81.70
2018-03-04T12:05:27.028Z,73.00
2018-03-04T12:07:56.873Z,77.57
2018-03-04T12:10:25.920Z,76.70
2018-03-04T12:12:55.001Z,75.20
2018-03-04T12:15:24.038Z,78.77
2018-03-04T12:17:53.165Z,76.40
2018-03-04T12:20:22.301Z,75.37
2018-03-04T12:22:51.337Z,83.00
2018-03-04T12:25:20.422Z,79.87
2018-03-04T12:27:49.455Z,74.13
2018-03-04T12:30:18.560Z,78.57
2018-03-04T12:32:47.601Z,82.70
2018-03-04T12:35:16.670Z,70.30
2018-03-04T12:37:45.760Z,71.37
2018-03-04T12:40:14.833Z,77.53
2018-03-04T12:42:43.882Z,78.20
2018-03-04T12:45:12.953Z,72.43
2018-03-04T12:47:42.812Z,76.23
2018-03-04T12:50:11.844Z,84.47
2018-03-04T12:52:40.909Z,70.50
2018-03-04T12:55:10.057Z,74.60
2018-03-04T12:57:39.086Z,79.03
2018-03-04T13:00:08.160Z,89.17
2018-03-04T13:02:37.207Z,76.80
2018-03-04T13:05:06.275Z,73.27
2018-03-04T13:07:35.398Z,69.40
2018-03-04T13:10:04.455Z,75.83
2018-03-04T13:12:33.489Z,77.33
2018-03-04T13:15:03.384Z,77.40
2018-03-04T13:17:32.472Z,70.83
2018-03-04T13:20:01.561Z,77.63
2018-03-04T13:22:30.637Z,73.67
2018-03-04T13:24:59.701Z,74.40
2018-03-04T13:27:28.773Z,72.17
2018-03-04T13:29:57.847Z,76.80
2018-03-04T13:32:26.943Z,82.10
2018-03-04T13:34:56.030Z,74.60
2018-03-04T13:37:25.102Z,79.07
2018-03-04T13:39:54.161Z,72.27
2018-03-04T13:42:23.212Z,79.00
2018-03-04T13:44:52.300Z,79.93
2018-03-04T13:47:21.440Z,90.03
2018-03-04T13:49:50.468Z,85.37
2018-03-04T13:52:19.539Z,78.70
2018-03-04T13:54:49.400Z,76.00
2018-03-04T13:57:18.437Z,76.57
2018-03-04T13:59:47.509Z,81.87
2018-03-04T14:02:16.577Z,68.77
2018-03-04T14:04:45.693Z,75.50
2018-03-04T14:07:14.775Z,79.90
2018-03-04T14:09:43.836Z,89.00
2018-03-04T14:12:13.671Z,83.23
2018-03-04T14:14:42.739Z,76.87
2018-03-04T14:17:12.560Z,78.73
2018-03-04T14:19:41.795Z,75.63
2018-03-04T14:22:10.838Z,75.87
2018-03-04T14:24:40.658Z,77.03
2018-03-04T14:27:09.723Z,77.67
2018-03-04T14:29:38.778Z,72.17
2018-03-04T14:32:07.848Z,75.33
2018-03-04T14:34:36.904Z,71.23
2018-03-04T14:37:05.999Z,70.60
2018-03-04T14:39:35.058Z,72.50
2018-03-04T14:42:04.120Z,75.03
2018-03-04T14:44:34.000Z,70.90
2018-03-04T14:47:03.086Z,70.80
2018-03-04T14:49:32.136Z,74.97
2018-03-04T14:52:01.249Z,80.67
2018-03-04T14:54:30.293Z,70.00
2018-03-04T14:56:59.373Z,78.13
2018-03-04T14:59:32.531Z,70.10
2018-03-04T15:02:01.588Z,77.10
2018-03-04T15:04:31.499Z,79.40
2018-03-04T15:07:00.536Z,69.97
2018-03-04T15:09:29.567Z,72.33
2018-03-04T15:11:58.700Z,79.80
2018-03-04T15:14:27.819Z,75.30
2018-03-04T15:16:56.883Z,72.07
2018-03-04T15:19:25.981Z,72.83
2018-03-04T15:21:55.025Z,72.77
2018-03-04T15:24:24.129Z,78.93
2018-03-04T15:26:53.191Z,72.03
2018-03-04T15:29:22.264Z,77.60
2018-03-04T15:31:51.353Z,68.00
2018-03-04T15:34:20.410Z,88.17
2018-03-04T15:36:49.464Z,75.23
2018-03-04T15:39:18.545Z,81.17
2018-03-04T15:41:47.571Z,81.00
2018-03-04T15:44:16.657Z,81.90
2018-03-04T15:46:45.731Z,82.90
2018-03-04T15:49:14.769Z,81.47
2018-03-04T15:51:43.835Z,91.60
2018-03-04T15:54:12.921Z,89.40
2018-03-04T15:56:42.001Z,88.27
2018-03-04T15:59:11.811Z,87.73
2018-03-04T16:01:41.683Z,95.80
2018-03-04T16:04:10.836Z,88.67
2018-03-04T16:06:39.900Z,95.00
2018-03-04T16:09:09.784Z,93.47
2018-03-04T16:11:38.840Z,93.10
2018-03-04T16:14:07.950Z,106.57
2018-03-04T16:16:36.987Z,105.13
2018-03-04T16:19:06.325Z,126.97
2018-03-04T16:21:35.376Z,138.13
2018-03-04T16:24:04.805Z,103.93
2018-03-04T16:26:34.096Z,106.00
2018-03-04T16:29:03.928Z,105.60
2018-03-04T16:31:32.998Z,96.73
2018-03-04T16:34:02.849Z,111.60
2018-03-04T16:36:31.903Z,103.47
2018-03-04T16:39:01.727Z,114.30
2018-03-04T16:41:31.571Z,102.67
2018-03-04T16:44:00.659Z,102.80
2018-03-04T16:46:29.749Z,94.60
2018-03-04T16:48:58.802Z,97.63
2018-03-04T16:51:27.900Z,95.57
2018-03-04T16:53:57.044Z,107.70
2018-03-04T16:56:26.105Z,107.40
2018-03-04T16:58:55.392Z,99.87
2018-03-04T17:01:24.896Z,111.33
2018-03-04T17:03:54.244Z,105.20
2018-03-04T17:06:24.121Z,110.40
2018-03-04T17:08:54.206Z,112.03
2018-03-04T17:11:24.321Z,110.33
2018-03-04T17:13:54.785Z,106.73
2018-03-04T17:16:24.401Z,107.27
2018-03-04T17:18:54.226Z,109.30
2018-03-04T17:21:23.339Z,191.30
2018-03-04T17:23:52.737Z,119.20
2018-03-04T17:26:21.775Z,121.97
2018-03-04T17:28:50.880Z,113.50
2018-03-04T17:31:19.931Z,105.27
2018-03-04T17:33:48.998Z,111.33
2018-03-04T17:36:18.193Z,111.87
2018-03-04T17:38:47.309Z,123.03
2018-03-04T17:41:16.344Z,122.70
2018-03-04T17:43:45.511Z,122.90
2018-03-04T17:46:14.680Z,130.63
2018-03-04T17:48:44.503Z,130.77
2018-03-04T17:51:13.675Z,132.20
2018-03-04T17:53:43.565Z,148.57
2018-03-04T17:56:13.106Z,127.80
2018-03-04T17:58:42.485Z,169.40
2018-03-04T18:01:12.994Z,169.60
2018-03-04T18:03:43.116Z,160.00
2018-03-04T18:06:12.185Z,157.77
2018-03-04T18:08:41.261Z,152.07
2018-03-04T18:11:10.363Z,170.37
2018-03-04T18:13:39.520Z,148.40
2018-03-04T18:16:09.409Z,160.23
2018-03-04T18:18:38.534Z,158.07
2018-03-04T18:21:07.575Z,147.90
2018-03-04T18:23:36.687Z,146.80
2018-03-04T18:26:05.848Z,138.43
2018-03-04T18:28:34.896Z,126.20
2018-03-04T18:31:04.715Z,121.90
2018-03-04T18:33:34.607Z,116.60
2018-03-04T18:36:03.683Z,134.13
2018-03-04T18:38:32.767Z,125.47
2018-03-04T18:41:01.858Z,155.63
2018-03-04T18:43:31.489Z,157.93
2018-03-04T18:46:00.561Z,138.17
2018-03-04T18:48:29.638Z,155.83
2018-03-04T18:50:58.720Z,144.60
2018-03-04T18:53:28.583Z,149.20
2018-03-04T18:55:57.646Z,146.90
2018-03-04T18:58:26.808Z,147.27
2018-03-04T19:00:55.881Z,127.37
2018-03-04T19:03:24.998Z,131.80
2018-03-04T19:05:54.855Z,117.97
2018-03-04T19:08:23.922Z,120.93
2018-03-04T19:10:53.790Z,129.50
2018-03-04T19:13:22.891Z,130.83
2018-03-04T19:15:51.964Z,124.43
2018-03-04T19:18:21.095Z,124.17
2018-03-04T19:20:50.189Z,120.80
2018-03-04T19:23:19.258Z,121.63
2018-03-04T19:25:48.399Z,137.27
2018-03-04T19:28:18.256Z,133.47
2018-03-04T19:30:47.346Z,140.97
2018-03-04T19:33:16.415Z,212.40
2018-03-04T19:35:45.544Z,127.57
2018-03-04T19:38:14.641Z,109.20
2018-03-04T19:40:43.770Z,122.27
2018-03-04T19:43:12.987Z,121.33
2018-03-04T19:45:42.827Z,113.37
2018-03-04T19:48:11.950Z,118.57
2018-03-04T19:50:41.048Z,115.83
2018-03-04T19:53:10.140Z,118.30
2018-03-04T19:55:39.255Z,115.87
2018-03-04T19:58:08.367Z,144.17
2018-03-04T20:00:38.232Z,136.67
2018-03-04T20:03:07.352Z,115.57
2018-03-04T20:05:36.437Z,106.07
2018-03-04T20:08:05.564Z,120.60
2018-03-04T20:10:35.432Z,123.60
2018-03-04T20:13:05.479Z,112.10
2018-03-04T20:15:34.606Z,127.97
2018-03-04T20:18:04.435Z,135.90
2018-03-04T20:20:33.633Z,121.60
2018-03-04T20:23:02.697Z,136.03
2018-03-04T20:25:31.818Z,141.30
2018-03-04T20:28:01.000Z,255.77
2018-03-04T20:30:30.868Z,188.47
2018-03-04T20:33:00.009Z,150.03
2018-03-04T20:35:29.827Z,138.77
2018-03-04T20:37:58.932Z,149.00
2018-03-04T20:40:28.001Z,131.80
2018-03-04T20:43:01.116Z,135.03
2018-03-04T20:45:30.307Z,132.67
2018-03-04T20:47:59.420Z,126.90
2018-03-04T20:50:28.484Z,125.50
2018-03-04T20:52:58.309Z,135.57
2018-03-04T20:55:27.510Z,137.87
2018-03-04T20:57:56.787Z,147.43
2018-03-04T21:00:26.615Z,149.10
2018-03-04T21:02:55.736Z,142.13
2018-03-04T21:05:24.814Z,144.97
2018-03-04T21:07:53.883Z,140.37
2018-03-04T21:10:23.763Z,140.10
2018-03-04T21:12:52.851Z,147.93
2018-03-04T21:15:21.913Z,150.23
2018-03-04T21:17:51.057Z,129.40
2018-03-04T21:20:20.114Z,167.83
2018-03-04T21:22:49.298Z,145.10
2018-03-04T21:25:18.433Z,129.60
2018-03-04T21:27:47.583Z,136.90
2018-03-04T21:30:16.656Z,124.90
2018-03-04T21:32:46.583Z,122.03
2018-03-04T21:35:16.470Z,134.60
2018-03-04T21:37:45.573Z,130.63
2018-03-04T21:40:14.704Z,134.40
2018-03-04T21:42:43.769Z,136.57
2018-03-04T21:45:13.606Z,152.27
2018-03-04T21:47:42.706Z,146.90
2018-03-04T21:50:11.764Z,140.37
2018-03-04T21:52:40.870Z,140.67
2018-03-04T21:55:10.719Z,145.17
2018-03-04T21:57:39.823Z,153.57
2018-03-04T22:00:09.005Z,138.07
2018-03-04T22:02:38.090Z,128.53
2018-03-04T22:05:07.910Z,147.10
2018-03-04T22:07:37.031Z,122.50
2018-03-04T22:10:06.116Z,138.77
2018-03-04T22:12:35.698Z,124.83
2018-03-04T22:15:04.804Z,130.27
2018-03-04T22:17:33.867Z,130.63
2018-03-04T22:20:04.046Z,142.93
2018-03-04T22:22:33.124Z,142.93
2018-03-04T22:25:02.207Z,136.77
2018-03-04T22:27:32.244Z,127.00
2018-03-04T22:30:02.176Z,129.47
2018-03-04T22:32:31.298Z,133.93
2018-03-04T22:35:00.390Z,138.97
2018-03-04T22:37:29.476Z,135.27
2018-03-04T22:39:58.580Z,141.33
2018-03-04T22:42:27.703Z,159.07
2018-03-04T22:44:57.532Z,147.27
2018-03-04T22:47:26.619Z,139.43
2018-03-04T22:49:55.692Z,148.00
2018-03-04T22:52:25.568Z,140.70
2018-03-04T22:54:54.643Z,132.63
2018-03-04T22:57:23.779Z,122.70
2018-03-04T22:59:52.811Z,131.43
2018-03-04T23:02:21.913Z,138.37
2018-03-04T23:04:51.004Z,132.23
2018-03-04T23:07:20.070Z,137.40
2018-03-04T23:09:49.928Z,143.73
2018-03-04T23:12:18.992Z,136.70
2018-03-04T23:14:48.100Z,132.03
2018-03-04T23:17:17.155Z,146.83
2018-03-04T23:19:46.260Z,130.20
2018-03-04T23:22:16.127Z,134.60
2018-03-04T23:24:45.202Z,138.07
2018-03-04T23:27:14.342Z,143.63
2018-03-04T23:29:43.432Z,129.57
2018-03-04T23:32:12.528Z,130.50
2018-03-04T23:34:41.678Z,126.07
2018-03-04T23:37:10.767Z,125.67
2018-03-04T23:39:40.632Z,128.63
2018-03-04T23:42:09.690Z,126.23
2018-03-04T23:44:38.793Z,120.40
2018-03-04T23:47:07.873Z,123.20
2018-03-04T23:49:36.923Z,133.90
2018-03-04T23:52:06.021Z,131.97
2018-03-04T23:54:35.082Z,127.47
2018-03-04T23:57:04.177Z,119.70
2018-03-04T23:59:33.283Z,138.03
